createdAt,value
2017-07-21T00:00:01.042Z,22.00
2017-07-21T00:02:29.306Z,22.00
2017-07-21T00:04:57.574Z,22.00
2017-07-21T00:07:26.648Z,22.00
2017-07-21T00:09:54.975Z,22.00
2017-07-21T00:12:24.043Z,21.90
2017-07-21T00:14:52.302Z,21.90
2017-07-21T00:17:20.632Z,21.90
2017-07-21T00:19:48.961Z,21.90
2017-07-21T00:22:17.233Z,21.90
2017-07-21T00:24:45.525Z,21.90
2017-07-21T00:27:13.781Z,21.90
2017-07-21T00:29:42.065Z,21.90
2017-07-21T00:32:10.311Z,21.90
2017-07-21T00:34:38.661Z,21.80
2017-07-21T00:37:07.770Z,21.80
2017-07-21T00:39:36.820Z,21.80
2017-07-21T00:42:05.072Z,21.80
2017-07-21T00:44:33.320Z,21.80
2017-07-21T00:47:01.633Z,21.70
2017-07-21T00:49:29.909Z,21.70
2017-07-21T00:51:58.244Z,21.70
2017-07-21T00:54:26.588Z,21.70
2017-07-21T00:56:54.928Z,21.70
2017-07-21T00:59:23.236Z,21.60
2017-07-21T01:01:51.461Z,21.60
2017-07-21T01:04:19.705Z,21.60
2017-07-21T01:06:48.082Z,21.50
2017-07-21T01:09:16.366Z,21.50
2017-07-21T01:11:44.627Z,21.50
2017-07-21T01:14:13.715Z,21.50
2017-07-21T01:16:42.061Z,21.50
2017-07-21T01:19:10.307Z,21.50
2017-07-21T01:21:38.618Z,21.50
2017-07-21T01:24:06.955Z,21.50
2017-07-21T01:26:35.225Z,21.40
2017-07-21T01:29:03.477Z,21.40
2017-07-21T01:31:31.875Z,21.40
2017-07-21T01:34:00.165Z,21.40
2017-07-21T01:36:28.561Z,21.40
2017-07-21T01:38:56.802Z,21.40
2017-07-21T01:41:25.070Z,21.40
2017-07-21T01:43:53.369Z,21.40
2017-07-21T01:46:21.662Z,21.40
2017-07-21T01:48:49.970Z,21.40
2017-07-21T01:51:18.241Z,21.40
2017-07-21T01:53:46.568Z,21.30
2017-07-21T01:56:14.964Z,21.30
2017-07-21T01:58:43.219Z,21.30
2017-07-21T02:01:11.685Z,21.30
2017-07-21T02:03:39.979Z,21.30
2017-07-21T02:06:08.262Z,21.20
2017-07-21T02:08:36.617Z,21.20
2017-07-21T02:11:04.972Z,21.20
2017-07-21T02:13:33.314Z,21.20
2017-07-21T02:16:01.580Z,21.20
2017-07-21T02:18:29.892Z,21.20
2017-07-21T02:20:58.925Z,21.20
2017-07-21T02:23:27.240Z,21.10
2017-07-21T02:25:55.509Z,21.10
2017-07-21T02:28:23.796Z,21.10
2017-07-21T02:30:52.072Z,21.10
2017-07-21T02:33:20.359Z,21.10
2017-07-21T02:35:48.602Z,21.00
2017-07-21T02:38:16.920Z,20.90
2017-07-21T02:40:45.988Z,20.90
2017-07-21T02:43:14.417Z,20.90
2017-07-21T02:45:42.688Z,20.90
2017-07-21T02:48:11.053Z,20.80
2017-07-21T02:50:40.094Z,20.70
2017-07-21T02:53:08.405Z,20.70
2017-07-21T02:55:36.891Z,20.70
2017-07-21T02:58:05.126Z,20.70
2017-07-21T03:00:33.461Z,20.70
2017-07-21T03:03:01.788Z,20.70
2017-07-21T03:05:30.061Z,20.60
2017-07-21T03:07:58.421Z,20.60
2017-07-21T03:10:26.706Z,20.70
2017-07-21T03:12:55.829Z,20.70
2017-07-21T03:15:24.127Z,20.60
2017-07-21T03:17:52.448Z,20.50
2017-07-21T03:20:20.729Z,20.50
2017-07-21T03:23:01.030Z,20.40
2017-07-21T03:25:30.208Z,20.40
2017-07-21T03:27:58.653Z,20.40
2017-07-21T03:30:26.923Z,20.40
2017-07-21T03:32:56.121Z,20.40
2017-07-21T03:35:24.416Z,20.40
2017-07-21T03:37:52.749Z,20.40
2017-07-21T03:40:21.089Z,20.40
2017-07-21T03:42:49.485Z,20.40
2017-07-21T03:45:17.869Z,20.40
2017-07-21T03:47:46.267Z,20.40
2017-07-21T03:50:15.379Z,20.40
2017-07-21T03:52:43.728Z,20.40
2017-07-21T03:55:12.160Z,20.40
2017-07-21T03:57:40.640Z,20.40
2017-07-21T04:00:09.054Z,20.40
2017-07-21T04:02:37.433Z,20.40
2017-07-21T04:05:05.839Z,20.40
2017-07-21T04:07:34.209Z,20.40
2017-07-21T04:10:02.634Z,20.40
2017-07-21T04:12:30.988Z,20.40
2017-07-21T04:15:04.197Z,20.40
2017-07-21T04:17:32.542Z,20.50
2017-07-21T04:20:07.710Z,20.50
2017-07-21T04:22:36.090Z,20.50
2017-07-21T04:25:04.599Z,20.50
2017-07-21T04:27:32.916Z,20.50
2017-07-21T04:30:01.513Z,20.50
2017-07-21T04:32:29.970Z,20.50
2017-07-21T04:34:59.184Z,20.50
2017-07-21T04:37:28.514Z,20.50
2017-07-21T04:39:56.852Z,20.60
2017-07-21T04:42:30.144Z,20.60
2017-07-21T04:44:58.585Z,20.70
2017-07-21T04:47:28.002Z,20.70
2017-07-21T04:49:56.225Z,20.80
2017-07-21T04:52:28.957Z,20.90
2017-07-21T04:54:57.288Z,20.90
2017-07-21T04:57:29.742Z,20.90
2017-07-21T04:59:58.045Z,20.90
2017-07-21T05:02:26.545Z,21.00
2017-07-21T05:04:54.879Z,21.20
2017-07-21T05:07:34.365Z,21.30
2017-07-21T05:10:03.707Z,21.70
2017-07-21T05:12:36.978Z,21.70
2017-07-21T05:15:06.132Z,22.10
2017-07-21T05:17:34.391Z,22.10
2017-07-21T05:20:02.953Z,22.30
2017-07-21T05:22:31.245Z,22.40
2017-07-21T05:24:59.514Z,22.60
2017-07-21T05:27:27.770Z,22.80
2017-07-21T05:29:56.020Z,22.80
2017-07-21T05:32:24.309Z,22.90
2017-07-21T05:34:52.645Z,23.00
2017-07-21T05:37:20.910Z,23.20
2017-07-21T05:39:49.145Z,23.30
2017-07-21T05:42:17.394Z,23.40
2017-07-21T05:44:45.709Z,23.60
2017-07-21T05:47:17.050Z,23.80
2017-07-21T05:49:46.124Z,24.10
2017-07-21T05:52:21.224Z,24.20
2017-07-21T05:54:49.569Z,24.20
2017-07-21T05:57:17.829Z,24.30
2017-07-21T05:59:46.089Z,24.50
2017-07-21T06:02:15.139Z,24.80
2017-07-21T06:05:06.154Z,24.80
2017-07-21T06:07:34.397Z,25.00
2017-07-21T06:10:02.677Z,25.20
2017-07-21T06:12:32.977Z,25.30
2017-07-21T06:15:02.313Z,25.70
2017-07-21T06:17:30.641Z,25.70
2017-07-21T06:19:59.711Z,26.00
2017-07-21T06:22:28.004Z,25.90
2017-07-21T06:24:57.037Z,26.40
2017-07-21T06:27:28.361Z,26.30
2017-07-21T06:29:56.671Z,26.50
2017-07-21T06:32:33.965Z,26.30
2017-07-21T06:35:02.209Z,26.00
2017-07-21T06:37:30.489Z,26.00
2017-07-21T06:40:17.308Z,26.10
2017-07-21T06:42:45.561Z,26.10
2017-07-21T06:45:17.770Z,26.00
2017-07-21T06:47:46.013Z,25.90
2017-07-21T06:50:23.190Z,25.90
2017-07-21T06:52:51.467Z,25.80
2017-07-21T06:55:19.754Z,25.70
2017-07-21T06:57:48.008Z,25.80
2017-07-21T07:00:20.108Z,25.70
2017-07-21T07:02:48.382Z,25.70
2017-07-21T07:05:16.681Z,25.80
2017-07-21T07:07:45.009Z,25.80
2017-07-21T07:10:13.341Z,25.80
2017-07-21T07:12:41.593Z,25.90
2017-07-21T07:15:09.896Z,26.00
2017-07-21T07:17:38.192Z,26.00
2017-07-21T07:20:06.478Z,26.20
2017-07-21T07:22:34.892Z,26.20
2017-07-21T07:25:03.132Z,26.30
2017-07-21T07:27:32.170Z,26.40
2017-07-21T07:30:00.424Z,26.40
2017-07-21T07:32:28.771Z,26.50
2017-07-21T07:34:57.779Z,26.90
2017-07-21T07:37:26.122Z,26.80
2017-07-21T07:39:54.397Z,27.30
2017-07-21T07:42:22.677Z,27.80
2017-07-21T07:44:50.923Z,28.40
2017-07-21T07:47:19.201Z,28.80
2017-07-21T07:49:47.448Z,29.10
2017-07-21T07:52:15.852Z,29.50
2017-07-21T07:54:44.109Z,29.90
2017-07-21T07:57:12.545Z,30.10
2017-07-21T07:59:41.673Z,30.90
2017-07-21T08:02:09.953Z,30.90
2017-07-21T08:04:38.223Z,31.20
2017-07-21T08:07:06.540Z,31.60
2017-07-21T08:09:34.839Z,31.90
2017-07-21T08:12:03.162Z,32.20
2017-07-21T08:14:31.433Z,32.40
2017-07-21T08:16:59.720Z,32.30
2017-07-21T08:19:28.199Z,32.40
2017-07-21T08:21:56.629Z,32.50
2017-07-21T08:24:24.891Z,32.30
2017-07-21T08:26:53.241Z,32.20
2017-07-21T08:29:21.561Z,32.00
2017-07-21T08:31:50.694Z,32.00
2017-07-21T08:34:19.068Z,32.10
2017-07-21T08:36:47.513Z,32.00
2017-07-21T08:39:16.626Z,31.90
2017-07-21T08:41:45.112Z,31.90
2017-07-21T08:44:13.518Z,32.00
2017-07-21T08:46:41.861Z,32.10
2017-07-21T08:49:10.185Z,32.20
2017-07-21T08:51:38.704Z,32.20
2017-07-21T08:54:07.165Z,32.30
2017-07-21T08:56:36.225Z,32.50
2017-07-21T08:59:04.572Z,32.50
2017-07-21T09:01:32.961Z,32.60
2017-07-21T09:04:01.319Z,32.10
2017-07-21T09:06:29.709Z,31.80
2017-07-21T09:08:58.064Z,31.70
2017-07-21T09:11:27.101Z,31.90
2017-07-21T09:13:55.378Z,31.90
2017-07-21T09:16:23.636Z,32.10
2017-07-21T09:18:51.932Z,32.30
2017-07-21T09:21:20.289Z,32.40
2017-07-21T09:23:48.585Z,32.40
2017-07-21T09:26:16.870Z,32.20
2017-07-21T09:28:46.077Z,31.70
2017-07-21T09:31:14.385Z,31.70
2017-07-21T09:33:42.712Z,31.60
2017-07-21T09:36:11.081Z,31.60
2017-07-21T09:38:39.416Z,31.80
2017-07-21T09:41:07.821Z,31.60
2017-07-21T09:43:36.100Z,31.60
2017-07-21T09:46:04.421Z,31.60
2017-07-21T09:48:32.690Z,31.80
2017-07-21T09:51:00.986Z,32.20
2017-07-21T09:53:29.373Z,32.40
2017-07-21T09:55:57.708Z,32.50
2017-07-21T09:58:26.069Z,32.50
2017-07-21T10:00:54.373Z,32.40
2017-07-21T10:03:22.615Z,32.20
2017-07-21T10:05:50.961Z,32.20
2017-07-21T10:08:19.993Z,32.20
2017-07-21T10:10:48.433Z,32.20
2017-07-21T10:13:16.710Z,32.30
2017-07-21T10:15:45.829Z,32.40
2017-07-21T10:18:14.106Z,32.40
2017-07-21T10:20:42.420Z,32.40
2017-07-21T10:23:10.757Z,32.60
2017-07-21T10:25:39.038Z,32.60
2017-07-21T10:28:07.336Z,32.80
2017-07-21T10:30:35.688Z,33.00
2017-07-21T10:33:04.011Z,33.20
2017-07-21T10:35:32.373Z,33.40
2017-07-21T10:38:00.625Z,33.50
2017-07-21T10:40:28.881Z,33.60
2017-07-21T10:42:57.197Z,33.70
2017-07-21T10:45:25.483Z,33.80
2017-07-21T10:47:53.716Z,33.90
2017-07-21T10:50:22.012Z,33.90
2017-07-21T10:52:50.290Z,33.80
2017-07-21T10:55:18.611Z,33.80
2017-07-21T10:57:46.950Z,33.80
2017-07-21T11:00:15.193Z,33.80
2017-07-21T11:02:43.538Z,34.20
2017-07-21T11:05:11.885Z,34.50
2017-07-21T11:07:40.225Z,35.00
2017-07-21T11:10:08.578Z,35.60
2017-07-21T11:12:36.854Z,35.80
2017-07-21T11:15:05.203Z,36.50
2017-07-21T11:17:33.484Z,36.90
2017-07-21T11:20:01.753Z,37.20
2017-07-21T11:22:30.146Z,37.80
2017-07-21T11:24:58.409Z,38.10
2017-07-21T11:27:26.759Z,38.50
2017-07-21T11:29:55.020Z,38.90
2017-07-21T11:32:23.271Z,39.50
2017-07-21T11:34:51.592Z,39.60
2017-07-21T11:37:19.857Z,39.70
2017-07-21T11:39:48.171Z,41.00
2017-07-21T11:42:16.447Z,41.40
2017-07-21T11:44:44.740Z,42.10
2017-07-21T11:47:13.806Z,43.00
2017-07-21T11:49:42.081Z,43.00
2017-07-21T11:52:10.459Z,42.80
2017-07-21T11:54:38.969Z,42.80
2017-07-21T11:57:08.000Z,43.20
2017-07-21T11:59:36.605Z,43.20
2017-07-21T12:02:06.678Z,42.20
2017-07-21T12:04:35.016Z,42.10
2017-07-21T12:07:03.449Z,42.50
2017-07-21T12:09:32.601Z,42.80
2017-07-21T12:12:00.944Z,42.80
2017-07-21T12:14:29.203Z,43.00
2017-07-21T12:16:57.977Z,42.90
2017-07-21T12:19:26.249Z,41.90
2017-07-21T12:21:55.349Z,41.60
2017-07-21T12:24:23.984Z,41.60
2017-07-21T12:26:52.589Z,41.30
2017-07-21T12:29:21.077Z,40.30
2017-07-21T12:31:49.624Z,39.90
2017-07-21T12:34:18.153Z,38.70
2017-07-21T12:36:46.478Z,38.00
2017-07-21T12:39:14.869Z,37.20
2017-07-21T12:41:43.578Z,36.50
2017-07-21T12:44:11.859Z,35.50
2017-07-21T12:46:40.410Z,35.00
2017-07-21T12:49:08.867Z,34.10
2017-07-21T12:51:37.198Z,33.80
2017-07-21T12:54:05.746Z,33.50
2017-07-21T12:56:34.145Z,33.50
2017-07-21T12:59:02.720Z,33.90
2017-07-21T13:01:31.492Z,34.50
2017-07-21T13:03:59.821Z,34.80
2017-07-21T13:06:28.277Z,35.50
2017-07-21T13:08:56.713Z,35.60
2017-07-21T13:11:25.001Z,35.50
2017-07-21T13:13:53.320Z,34.50
2017-07-21T13:16:21.750Z,34.00
2017-07-21T13:18:50.208Z,33.40
2017-07-21T13:21:18.633Z,32.90
2017-07-21T13:23:46.909Z,32.50
2017-07-21T13:26:16.068Z,31.80
2017-07-21T13:28:44.429Z,31.80
2017-07-21T13:31:12.927Z,31.60
2017-07-21T13:33:42.155Z,31.20
2017-07-21T13:36:10.529Z,31.10
2017-07-21T13:38:38.826Z,30.90
2017-07-21T13:41:07.161Z,30.80
2017-07-21T13:43:35.461Z,30.60
2017-07-21T13:46:03.861Z,30.50
2017-07-21T13:48:32.868Z,30.30
2017-07-21T13:51:01.121Z,30.30
2017-07-21T13:53:29.369Z,30.30
2017-07-21T13:55:58.538Z,30.20
2017-07-21T13:58:26.772Z,30.10
2017-07-21T14:00:55.950Z,29.70
2017-07-21T14:03:24.225Z,29.70
2017-07-21T14:05:53.713Z,29.40
2017-07-21T14:08:23.412Z,29.20
2017-07-21T14:10:52.941Z,29.20
2017-07-21T14:13:22.718Z,29.10
2017-07-21T14:15:51.921Z,29.00
2017-07-21T14:18:20.838Z,28.90
2017-07-21T14:20:49.780Z,28.80
2017-07-21T14:23:18.423Z,28.60
2017-07-21T14:25:47.123Z,28.40
2017-07-21T14:28:15.428Z,28.30
2017-07-21T14:30:43.821Z,28.30
2017-07-21T14:33:12.114Z,28.30
2017-07-21T14:35:41.233Z,28.30
2017-07-21T14:38:09.596Z,28.20
2017-07-21T14:40:37.856Z,28.20
2017-07-21T14:43:06.901Z,28.20
2017-07-21T14:45:35.164Z,28.20
2017-07-21T14:48:04.225Z,28.20
2017-07-21T14:50:32.467Z,28.20
2017-07-21T14:53:00.757Z,28.20
2017-07-21T14:55:29.034Z,28.30
2017-07-21T14:57:57.289Z,28.40
2017-07-21T15:00:25.666Z,28.40
2017-07-21T15:02:54.685Z,28.40
2017-07-21T15:05:23.121Z,28.40
2017-07-21T15:07:51.397Z,28.50
2017-07-21T15:10:19.683Z,28.60
2017-07-21T15:12:48.100Z,28.60
2017-07-21T15:15:16.473Z,28.70
2017-07-21T15:17:44.767Z,28.70
2017-07-21T15:20:13.035Z,28.80
2017-07-21T15:22:41.294Z,28.80
2017-07-21T15:25:09.817Z,28.80
2017-07-21T15:27:38.846Z,28.90
2017-07-21T15:30:07.113Z,28.90
2017-07-21T15:32:35.452Z,29.00
2017-07-21T15:35:03.749Z,29.00
2017-07-21T15:37:32.189Z,29.00
2017-07-21T15:40:01.349Z,29.00
2017-07-21T15:42:29.605Z,29.10
2017-07-21T15:44:57.981Z,29.00
2017-07-21T15:47:26.275Z,28.90
2017-07-21T15:49:54.617Z,29.00
2017-07-21T15:52:23.636Z,28.80
2017-07-21T15:54:51.905Z,28.80
2017-07-21T15:57:20.217Z,28.80
2017-07-21T15:59:48.529Z,28.80
2017-07-21T16:02:16.829Z,28.80
2017-07-21T16:04:45.096Z,28.70
2017-07-21T16:07:14.121Z,28.50
2017-07-21T16:09:42.693Z,28.50
2017-07-21T16:12:11.074Z,28.60
2017-07-21T16:14:39.321Z,28.50
2017-07-21T16:17:08.469Z,28.30
2017-07-21T16:19:36.807Z,28.20
2017-07-21T16:22:05.277Z,28.20
2017-07-21T16:24:33.612Z,28.10
2017-07-21T16:27:01.998Z,28.00
2017-07-21T16:29:30.402Z,28.00
2017-07-21T16:31:58.707Z,28.00
2017-07-21T16:34:27.125Z,28.00
2017-07-21T16:36:55.559Z,28.10
2017-07-21T16:39:24.009Z,28.20
2017-07-21T16:41:52.303Z,28.20
2017-07-21T16:44:20.645Z,28.30
2017-07-21T16:46:48.957Z,28.20
2017-07-21T16:49:17.240Z,28.20
2017-07-21T16:51:45.505Z,28.30
2017-07-21T16:54:13.892Z,28.30
2017-07-21T16:56:42.164Z,28.20
2017-07-21T16:59:10.572Z,28.20
2017-07-21T17:01:38.848Z,28.20
2017-07-21T17:04:07.192Z,28.20
2017-07-21T17:06:35.618Z,28.30
2017-07-21T17:09:03.857Z,28.20
2017-07-21T17:11:32.149Z,28.20
2017-07-21T17:14:00.389Z,28.10
2017-07-21T17:16:28.719Z,28.20
2017-07-21T17:18:56.968Z,28.20
2017-07-21T17:21:25.292Z,28.20
2017-07-21T17:23:54.369Z,28.20
2017-07-21T17:26:22.814Z,28.20
2017-07-21T17:28:51.097Z,28.30
2017-07-21T17:31:19.404Z,28.20
2017-07-21T17:33:47.721Z,28.20
2017-07-21T17:36:15.994Z,28.30
2017-07-21T17:38:44.257Z,28.20
2017-07-21T17:41:12.903Z,28.20
2017-07-21T17:43:41.178Z,28.20
2017-07-21T17:46:09.441Z,28.20
2017-07-21T17:48:37.867Z,28.10
2017-07-21T17:51:06.287Z,28.10
2017-07-21T17:53:34.632Z,28.10
2017-07-21T17:56:02.943Z,28.00
2017-07-21T17:58:31.199Z,27.90
2017-07-21T18:00:59.450Z,27.90
2017-07-21T18:03:28.466Z,27.90
2017-07-21T18:05:56.744Z,27.90
2017-07-21T18:08:25.261Z,27.90
2017-07-21T18:10:53.521Z,27.90
2017-07-21T18:13:21.774Z,27.80
2017-07-21T18:15:50.073Z,27.70
2017-07-21T18:18:18.339Z,27.70
2017-07-21T18:20:46.608Z,27.70
2017-07-21T18:23:14.848Z,27.70
2017-07-21T18:25:43.164Z,27.70
2017-07-21T18:28:11.400Z,27.70
2017-07-21T18:30:40.467Z,27.60
2017-07-21T18:33:08.758Z,27.60
2017-07-21T18:35:37.381Z,27.60
2017-07-21T18:38:05.789Z,27.60
2017-07-21T18:40:34.243Z,27.60
2017-07-21T18:43:02.593Z,27.50
2017-07-21T18:45:30.971Z,27.50
2017-07-21T18:48:00.322Z,27.50
2017-07-21T18:50:28.613Z,27.50
2017-07-21T18:52:57.061Z,27.40
2017-07-21T18:55:25.321Z,27.40
2017-07-21T18:57:53.672Z,27.40
2017-07-21T19:00:22.809Z,27.30
2017-07-21T19:02:51.060Z,27.30
2017-07-21T19:05:19.334Z,27.20
2017-07-21T19:07:47.625Z,27.20
2017-07-21T19:10:15.905Z,27.20
2017-07-21T19:12:44.173Z,27.10
2017-07-21T19:15:12.484Z,27.10
2017-07-21T19:17:40.729Z,27.10
2017-07-21T19:20:09.017Z,26.90
2017-07-21T19:22:37.380Z,26.90
2017-07-21T19:25:06.433Z,26.90
2017-07-21T19:27:34.694Z,26.90
2017-07-21T19:30:02.995Z,26.80
2017-07-21T19:32:31.345Z,26.80
2017-07-21T19:34:59.655Z,26.80
2017-07-21T19:37:27.947Z,26.80
2017-07-21T19:39:57.056Z,26.60
2017-07-21T19:42:25.334Z,26.60
2017-07-21T19:44:53.635Z,26.50
2017-07-21T19:47:21.873Z,26.40
2017-07-21T19:49:50.156Z,26.30
2017-07-21T19:52:18.434Z,26.10
2017-07-21T19:54:46.733Z,26.10
2017-07-21T19:57:15.939Z,26.20
2017-07-21T19:59:44.187Z,26.10
2017-07-21T20:02:12.521Z,26.10
2017-07-21T20:04:40.783Z,26.10
2017-07-21T20:07:09.097Z,26.00
2017-07-21T20:09:37.400Z,26.00
2017-07-21T20:12:05.694Z,26.00
2017-07-21T20:14:33.994Z,26.10
2017-07-21T20:17:02.249Z,26.10
2017-07-21T20:19:30.501Z,26.10
2017-07-21T20:21:58.790Z,26.00
2017-07-21T20:24:27.077Z,26.10
2017-07-21T20:26:55.388Z,26.00
2017-07-21T20:29:24.452Z,26.00
2017-07-21T20:31:52.725Z,25.90
2017-07-21T20:34:21.010Z,26.00
2017-07-21T20:36:49.267Z,25.90
2017-07-21T20:39:17.545Z,25.90
2017-07-21T20:41:45.797Z,25.90
2017-07-21T20:44:14.172Z,25.90
2017-07-21T20:46:42.410Z,25.90
2017-07-21T20:49:11.585Z,25.80
2017-07-21T20:51:39.850Z,25.80
2017-07-21T20:54:08.183Z,25.80
2017-07-21T20:56:36.428Z,25.80
2017-07-21T20:59:05.450Z,25.70
2017-07-21T21:01:33.971Z,25.70
2017-07-21T21:04:02.218Z,25.60
2017-07-21T21:06:30.454Z,25.70
2017-07-21T21:08:58.750Z,25.70
2017-07-21T21:11:27.231Z,25.70
2017-07-21T21:13:55.484Z,25.70
2017-07-21T21:16:25.569Z,25.60
2017-07-21T21:18:53.900Z,25.50
2017-07-21T21:21:22.199Z,25.50
2017-07-21T21:23:50.447Z,25.50
2017-07-21T21:26:18.931Z,25.50
2017-07-21T21:28:47.237Z,25.40
2017-07-21T21:31:15.469Z,25.40
2017-07-21T21:33:44.564Z,25.30
2017-07-21T21:36:13.596Z,25.30
2017-07-21T21:38:41.893Z,25.30
2017-07-21T21:41:10.143Z,25.30
2017-07-21T21:43:39.212Z,25.30
2017-07-21T21:46:07.600Z,25.30
2017-07-21T21:48:35.839Z,25.30
2017-07-21T21:51:04.071Z,25.20
2017-07-21T21:53:32.312Z,25.20
2017-07-21T21:56:01.422Z,25.20
2017-07-21T21:58:29.688Z,25.20
2017-07-21T22:00:57.951Z,25.20
2017-07-21T22:03:26.239Z,25.10
2017-07-21T22:05:55.249Z,25.10
2017-07-21T22:08:23.492Z,25.10
2017-07-21T22:10:51.833Z,25.10
2017-07-21T22:13:20.163Z,25.10
2017-07-21T22:15:55.225Z,25.10
2017-07-21T22:18:23.471Z,25.10
2017-07-21T22:20:51.761Z,25.10
2017-07-21T22:23:20.192Z,25.10
2017-07-21T22:25:48.581Z,25.10
2017-07-21T22:28:16.952Z,25.10
2017-07-21T22:30:45.252Z,25.00
2017-07-21T22:33:13.525Z,24.80
2017-07-21T22:35:41.901Z,24.40
2017-07-21T22:38:10.161Z,24.20
2017-07-21T22:40:38.405Z,24.20
2017-07-21T22:43:06.644Z,24.20
2017-07-21T22:45:34.953Z,24.10
2017-07-21T22:48:03.197Z,24.10
2017-07-21T22:50:31.477Z,23.90
2017-07-21T22:52:59.754Z,23.90
2017-07-21T22:55:27.992Z,23.80
2017-07-21T22:57:57.080Z,23.60
2017-07-21T23:00:25.337Z,23.60
2017-07-21T23:02:53.657Z,23.50
2017-07-21T23:05:21.966Z,23.40
2017-07-21T23:07:50.228Z,23.30
2017-07-21T23:10:18.481Z,23.10
2017-07-21T23:12:46.749Z,22.90
2017-07-21T23:15:15.010Z,22.70
2017-07-21T23:17:44.072Z,22.10
2017-07-21T23:20:12.312Z,22.10
2017-07-21T23:22:40.577Z,22.00
2017-07-21T23:25:08.823Z,21.90
2017-07-21T23:27:37.838Z,21.60
2017-07-21T23:30:06.250Z,21.50
2017-07-21T23:32:34.514Z,21.40
2017-07-21T23:35:02.776Z,21.40
2017-07-21T23:37:31.037Z,21.30
2017-07-21T23:39:59.307Z,21.10
2017-07-21T23:42:27.618Z,21.00
2017-07-21T23:44:55.892Z,20.70
2017-07-21T23:47:24.170Z,20.70
2017-07-21T23:49:52.417Z,20.70
2017-07-21T23:52:20.695Z,20.60
2017-07-21T23:54:48.937Z,20.50
2017-07-21T23:57:17.194Z,20.50
2017-07-21T23:59:45.438Z,20.50
